createdAt,value
2023-03-17T00:01:56.856Z,96293.19
2023-03-17T00:04:27.638Z,96283.13
2023-03-17T00:06:56.651Z,96280.72
2023-03-17T00:09:25.489Z,96273.84
2023-03-17T00:11:53.584Z,96275.06
2023-03-17T00:14:21.772Z,96268.63
2023-03-17T00:16:52.544Z,96265.59
2023-03-17T00:19:29.892Z,96266.16
2023-03-17T00:21:59.145Z,96260.91
2023-03-17T00:24:27.445Z,96261.94
2023-03-17T00:26:55.493Z,96257.09
2023-03-17T00:29:24.041Z,96263.78
2023-03-17T00:31:52.071Z,96256.69
2023-03-17T00:34:23.983Z,96261.34
2023-03-17T00:36:53.547Z,96257.88
2023-03-17T00:39:25.279Z,96261.34
2023-03-17T00:41:55.638Z,96261.09
2023-03-17T00:44:24.087Z,96264.94
2023-03-17T00:46:52.542Z,96260.09
2023-03-17T00:49:24.141Z,96260.72
2023-03-17T00:51:54.282Z,96256.06
2023-03-17T00:54:24.144Z,96250.22
2023-03-17T00:56:53.647Z,96245.78
2023-03-17T00:59:29.804Z,96241.13
2023-03-17T01:02:00.340Z,96234.47
2023-03-17T01:04:35.610Z,96243.34
2023-03-17T01:07:06.862Z,96232.28
2023-03-17T01:09:34.992Z,96233.47
2023-03-17T01:12:03.040Z,96233.28
2023-03-17T01:14:31.103Z,96232.28
2023-03-17T01:17:02.113Z,96223.41
2023-03-17T01:19:30.385Z,96222.97
2023-03-17T01:21:59.732Z,96220.19
2023-03-17T01:24:29.940Z,96214.91
2023-03-17T01:26:58.123Z,96216.97
2023-03-17T01:29:27.058Z,96207.06
2023-03-17T01:31:55.552Z,96206.88
2023-03-17T01:34:23.946Z,96206.88
2023-03-17T01:36:53.635Z,96199.66
2023-03-17T01:39:21.798Z,96199.66
2023-03-17T01:41:56.650Z,96192.97
2023-03-17T01:44:25.670Z,96188.13
2023-03-17T01:46:54.489Z,96187.34
2023-03-17T01:49:29.301Z,96185.34
2023-03-17T01:52:04.806Z,96182.72
2023-03-17T01:54:40.729Z,96196.66
2023-03-17T01:57:18.367Z,96191.59
2023-03-17T01:59:51.380Z,96179.88
2023-03-17T02:02:46.406Z,96182.13
2023-03-17T02:05:18.806Z,96188.81
2023-03-17T02:07:47.121Z,96183.75
2023-03-17T02:10:19.505Z,96183.72
2023-03-17T02:12:53.567Z,96177.13
2023-03-17T02:15:22.650Z,96175.44
2023-03-17T02:17:51.806Z,96170.63
2023-03-17T02:21:17.367Z,96178.72
2023-03-17T02:23:46.905Z,96190.41
2023-03-17T02:26:15.143Z,96178.47
2023-03-17T02:28:46.113Z,96183.56
2023-03-17T02:31:15.494Z,96177.88
2023-03-17T02:33:45.186Z,96177.50
2023-03-17T02:36:13.880Z,96172.63
2023-03-17T02:38:42.190Z,96174.50
2023-03-17T02:41:11.778Z,96174.25
2023-03-17T02:43:41.306Z,96170.63
2023-03-17T02:46:09.568Z,96171.44
2023-03-17T02:48:39.655Z,96181.38
2023-03-17T02:51:08.425Z,96176.13
2023-03-17T02:53:36.630Z,96172.06
2023-03-17T02:56:05.594Z,96170.25
2023-03-17T02:58:34.951Z,96169.44
2023-03-17T03:01:03.606Z,96161.81
2023-03-17T03:03:32.100Z,96160.59
2023-03-17T03:06:03.032Z,96154.94
2023-03-17T03:08:32.066Z,96160.75
2023-03-17T03:11:02.487Z,96155.72
2023-03-17T03:13:30.848Z,96159.94
2023-03-17T03:16:00.406Z,96161.78
2023-03-17T03:18:29.006Z,96159.72
2023-03-17T03:20:57.085Z,96161.94
2023-03-17T03:23:25.072Z,96168.22
2023-03-17T03:25:53.141Z,96152.50
2023-03-17T03:28:21.394Z,96156.31
2023-03-17T03:30:49.872Z,96147.81
2023-03-17T03:33:19.830Z,96153.28
2023-03-17T03:35:48.296Z,96149.69
2023-03-17T03:38:16.548Z,96158.16
2023-03-17T03:40:45.781Z,96157.97
2023-03-17T03:43:22.760Z,96155.13
2023-03-17T03:45:52.060Z,96155.16
2023-03-17T03:48:22.684Z,96154.13
2023-03-17T03:50:50.996Z,96162.66
2023-03-17T03:53:19.077Z,96153.16
2023-03-17T03:55:47.360Z,96159.03
2023-03-17T03:58:15.874Z,96152.94
2023-03-17T04:00:44.135Z,96153.38
2023-03-17T04:03:12.276Z,96154.16
2023-03-17T04:05:41.830Z,96150.56
2023-03-17T04:08:11.064Z,96159.22
2023-03-17T04:10:39.087Z,96149.34
2023-03-17T04:13:08.402Z,96160.47
2023-03-17T04:15:36.614Z,96146.53
2023-03-17T04:18:05.242Z,96141.91
2023-03-17T04:20:33.467Z,96142.31
2023-03-17T04:23:02.942Z,96131.22
2023-03-17T04:25:31.436Z,96138.09
2023-03-17T04:27:59.726Z,96141.91
2023-03-17T04:30:28.019Z,96137.06
2023-03-17T04:32:56.241Z,96134.06
2023-03-17T04:35:24.341Z,96137.25
2023-03-17T04:37:52.496Z,96136.69
2023-03-17T04:40:22.513Z,96128.38
2023-03-17T04:42:51.115Z,96129.78
2023-03-17T04:45:19.344Z,96136.00
2023-03-17T04:47:50.961Z,96127.97
2023-03-17T04:50:19.214Z,96132.19
2023-03-17T04:52:47.292Z,96134.00
2023-03-17T04:55:15.482Z,96137.03
2023-03-17T04:57:45.173Z,96138.63
2023-03-17T05:00:15.708Z,96128.38
2023-03-17T05:02:44.129Z,96121.09
2023-03-17T05:05:12.247Z,96117.06
2023-03-17T05:07:41.531Z,96115.25
2023-03-17T05:10:12.254Z,96108.19
2023-03-17T05:12:40.255Z,96113.66
2023-03-17T05:15:11.060Z,96118.50
2023-03-17T05:17:39.113Z,96123.75
2023-03-17T05:20:09.405Z,96130.78
2023-03-17T05:22:37.999Z,96129.19
2023-03-17T05:25:06.913Z,96133.22
2023-03-17T05:27:35.424Z,96134.63
2023-03-17T05:30:04.304Z,96133.41
2023-03-17T05:32:33.894Z,96134.47
2023-03-17T05:35:02.211Z,96133.84
2023-03-17T05:37:30.390Z,96135.69
2023-03-17T05:39:59.389Z,96128.44
2023-03-17T05:42:27.455Z,96122.56
2023-03-17T05:44:55.488Z,96129.22
2023-03-17T05:47:23.802Z,96119.53
2023-03-17T05:49:53.982Z,96118.31
2023-03-17T05:52:22.064Z,96124.16
2023-03-17T05:54:51.927Z,96123.75
2023-03-17T05:57:19.956Z,96120.50
2023-03-17T05:59:48.618Z,96118.31
2023-03-17T06:02:16.704Z,96120.91
2023-03-17T06:04:44.748Z,96125.97
2023-03-17T06:07:14.386Z,96125.97
2023-03-17T06:09:42.635Z,96131.19
2023-03-17T06:12:11.379Z,96140.06
2023-03-17T06:14:39.432Z,96129.97
2023-03-17T06:17:07.765Z,96125.09
2023-03-17T06:19:36.394Z,96130.75
2023-03-17T06:22:04.707Z,96144.66
2023-03-17T06:24:34.465Z,96143.06
2023-03-17T06:27:02.552Z,96146.47
2023-03-17T06:29:30.841Z,96137.81
2023-03-17T06:32:09.191Z,96137.19
2023-03-17T06:34:45.556Z,96132.75
2023-03-17T06:37:13.769Z,96125.50
2023-03-17T06:39:43.473Z,96114.75
2023-03-17T06:42:11.911Z,96111.97
2023-03-17T06:44:39.888Z,96108.22
2023-03-17T06:47:08.699Z,96110.63
2023-03-17T06:49:37.009Z,96115.25
2023-03-17T06:52:05.436Z,96111.94
2023-03-17T06:54:33.464Z,96122.00
2023-03-17T06:57:03.026Z,96121.53
2023-03-17T06:59:31.544Z,96122.50
2023-03-17T07:02:00.395Z,96117.63
2023-03-17T07:04:28.691Z,96119.66
2023-03-17T07:06:57.702Z,96124.31
2023-03-17T07:09:25.771Z,96120.00
2023-03-17T07:11:53.805Z,96125.03
2023-03-17T07:14:23.101Z,96119.31
2023-03-17T07:16:51.381Z,96124.34
2023-03-17T07:19:24.622Z,96127.19
2023-03-17T07:21:52.685Z,96133.50
2023-03-17T07:24:20.786Z,96130.91
2023-03-17T07:26:49.067Z,96126.28
2023-03-17T07:29:17.538Z,96126.72
2023-03-17T07:31:47.130Z,96128.81
2023-03-17T07:34:15.491Z,96130.00
2023-03-17T07:36:43.862Z,96140.75
2023-03-17T07:39:12.784Z,96138.50
2023-03-17T07:41:41.370Z,96140.03
2023-03-17T07:44:12.567Z,96133.47
2023-03-17T07:46:41.049Z,96132.28
2023-03-17T07:49:16.337Z,96130.00
2023-03-17T07:51:44.454Z,96125.38
2023-03-17T07:54:15.092Z,96124.78
2023-03-17T07:56:43.553Z,96124.47
2023-03-17T07:59:12.042Z,96141.31
2023-03-17T08:01:40.948Z,96135.56
2023-03-17T08:04:10.833Z,96138.56
2023-03-17T08:06:41.714Z,96145.72
2023-03-17T08:09:12.016Z,96146.28
2023-03-17T08:11:40.745Z,96144.00
2023-03-17T08:14:09.510Z,96131.06
2023-03-17T08:16:37.669Z,96136.09
2023-03-17T08:19:06.661Z,96136.56
2023-03-17T08:21:35.124Z,96130.63
2023-03-17T08:24:05.837Z,96127.41
2023-03-17T08:26:34.381Z,96131.06
2023-03-17T08:29:04.496Z,96117.75
2023-03-17T08:31:35.721Z,96117.09
2023-03-17T08:34:04.929Z,96113.16
2023-03-17T08:36:33.281Z,96120.03
2023-03-17T08:39:01.957Z,96121.25
2023-03-17T08:41:32.083Z,96119.53
2023-03-17T08:44:00.202Z,96119.84
2023-03-17T08:46:32.454Z,96107.19
2023-03-17T08:49:02.024Z,96114.59
2023-03-17T08:51:34.241Z,96103.66
2023-03-17T08:54:02.392Z,96110.97
2023-03-17T08:56:32.050Z,96115.63
2023-03-17T08:59:00.447Z,96116.84
2023-03-17T09:01:28.875Z,96104.28
2023-03-17T09:03:57.399Z,96092.59
2023-03-17T09:06:27.570Z,96105.81
2023-03-17T09:08:56.027Z,96100.44
2023-03-17T09:11:26.876Z,96101.06
2023-03-17T09:13:56.953Z,96096.44
2023-03-17T09:16:26.898Z,96097.78
2023-03-17T09:18:55.200Z,96100.59
2023-03-17T09:21:23.641Z,96112.31
2023-03-17T09:23:51.984Z,96116.88
2023-03-17T09:26:20.449Z,96110.66
2023-03-17T09:28:48.925Z,96112.53
2023-03-17T09:31:18.673Z,96106.47
2023-03-17T09:33:47.453Z,96103.25
2023-03-17T09:36:15.611Z,96106.25
2023-03-17T09:38:43.815Z,96102.06
2023-03-17T09:41:42.564Z,96110.38
2023-03-17T09:44:22.941Z,96108.34
2023-03-17T09:47:04.304Z,96113.53
2023-03-17T09:49:44.702Z,96108.28
2023-03-17T09:52:15.828Z,96109.97
2023-03-17T09:54:46.467Z,96107.00
2023-03-17T09:57:18.072Z,96109.25
2023-03-17T09:59:51.764Z,96105.13
2023-03-17T10:02:26.948Z,96101.22
2023-03-17T10:04:56.128Z,96100.25
2023-03-17T10:07:35.058Z,96101.47
2023-03-17T10:10:13.451Z,96099.91
2023-03-17T10:12:51.432Z,96098.91
2023-03-17T10:15:38.317Z,96088.56
2023-03-17T10:18:16.637Z,96085.91
2023-03-17T10:20:53.261Z,96088.03
2023-03-17T10:23:26.511Z,96089.06
2023-03-17T10:25:58.311Z,96085.91
2023-03-17T10:28:30.733Z,96079.81
2023-03-17T10:31:12.600Z,96077.13
2023-03-17T10:33:42.309Z,96072.34
2023-03-17T10:36:12.437Z,96067.31
2023-03-17T10:38:40.727Z,96074.50
2023-03-17T10:41:14.769Z,96067.38
2023-03-17T10:43:47.107Z,96069.47
2023-03-17T10:46:22.144Z,96078.25
2023-03-17T10:48:58.211Z,96078.31
2023-03-17T10:51:32.296Z,96070.38
2023-03-17T10:54:03.890Z,96073.84
2023-03-17T10:56:43.754Z,96057.66
2023-03-17T10:59:20.551Z,96058.72
2023-03-17T11:01:54.168Z,96048.63
2023-03-17T11:04:32.894Z,96058.22
2023-03-17T11:07:07.670Z,96046.00
2023-03-17T11:09:37.996Z,96037.22
2023-03-17T11:12:19.971Z,96039.06
2023-03-17T11:14:50.230Z,96040.63
2023-03-17T11:17:28.968Z,96041.44
2023-03-17T11:20:16.813Z,96032.41
2023-03-17T11:22:53.592Z,96033.72
2023-03-17T11:25:23.472Z,96028.63
2023-03-17T11:28:00.104Z,96027.53
2023-03-17T11:30:35.838Z,96030.50
2023-03-17T11:33:14.727Z,96025.16
2023-03-17T11:35:55.916Z,96021.72
2023-03-17T11:38:29.070Z,96019.56
2023-03-17T11:41:36.911Z,96019.03
2023-03-17T11:44:57.669Z,96009.47
2023-03-17T11:47:43.924Z,96015.31
2023-03-17T11:50:28.211Z,96009.25
2023-03-17T11:53:19.733Z,96003.41
2023-03-17T11:55:51.677Z,96006.06
2023-03-17T11:58:30.364Z,96001.03
2023-03-17T12:01:01.462Z,96011.13
2023-03-17T12:03:39.351Z,96012.19
2023-03-17T12:06:17.965Z,96011.66
2023-03-17T12:08:54.466Z,96003.41
2023-03-17T12:11:29.714Z,96000.75
2023-03-17T12:14:05.923Z,96001.53
2023-03-17T12:16:45.862Z,95996.78
2023-03-17T12:19:19.375Z,95991.97
2023-03-17T12:21:54.142Z,95992.78
2023-03-17T12:24:30.580Z,95997.81
2023-03-17T12:27:03.735Z,95988.78
2023-03-17T12:29:43.496Z,95983.75
2023-03-17T12:32:20.911Z,95984.81
2023-03-17T12:34:57.065Z,95980.31
2023-03-17T12:37:30.048Z,95984.56
2023-03-17T12:40:07.153Z,95983.19
2023-03-17T12:42:43.449Z,95982.41
2023-03-17T12:46:01.113Z,95974.16
2023-03-17T12:49:03.175Z,95980.25
2023-03-17T12:51:55.196Z,95978.13
2023-03-17T12:54:28.773Z,95978.63
2023-03-17T12:57:07.657Z,95978.38
2023-03-17T12:59:37.556Z,95969.63
2023-03-17T13:02:19.235Z,95970.44
2023-03-17T13:04:58.125Z,95969.06
2023-03-17T13:07:32.500Z,95967.50
2023-03-17T13:10:40.015Z,95957.13
2023-03-17T13:13:28.122Z,95957.63
2023-03-17T13:16:00.440Z,95955.81
2023-03-17T13:18:51.134Z,95956.59
2023-03-17T13:21:26.328Z,95947.31
2023-03-17T13:24:20.430Z,95944.94
2023-03-17T13:26:56.351Z,95942.00
2023-03-17T13:29:48.832Z,95938.28
2023-03-17T13:32:39.205Z,95940.41
2023-03-17T13:35:26.283Z,95934.56
2023-03-17T13:38:39.722Z,95935.59
2023-03-17T13:41:38.589Z,95922.88
2023-03-17T13:44:22.412Z,95923.41
2023-03-17T13:46:53.003Z,95923.66
2023-03-17T13:49:28.218Z,95922.34
2023-03-17T13:52:02.854Z,95922.06
2023-03-17T13:54:34.786Z,95918.34
2023-03-17T13:57:27.645Z,95923.16
2023-03-17T14:00:03.841Z,95920.75
2023-03-17T14:02:39.008Z,95911.44
2023-03-17T14:05:09.735Z,95909.03
2023-03-17T14:07:49.270Z,95901.63
2023-03-17T14:10:21.821Z,95906.69
2023-03-17T14:12:57.757Z,95909.34
2023-03-17T14:15:32.415Z,95916.78
2023-03-17T14:18:08.707Z,95903.50
2023-03-17T14:20:36.845Z,95900.28
2023-03-17T14:23:07.261Z,95892.84
2023-03-17T14:25:37.552Z,95897.94
2023-03-17T14:28:11.177Z,95890.75
2023-03-17T14:30:40.542Z,95884.63
2023-03-17T14:33:23.447Z,95894.47
2023-03-17T14:35:54.295Z,95892.63
2023-03-17T14:38:27.668Z,95887.81
2023-03-17T14:41:06.180Z,95890.50
2023-03-17T14:43:36.592Z,95892.63
2023-03-17T14:46:07.567Z,95894.75
2023-03-17T14:48:42.311Z,95885.69
2023-03-17T14:51:19.094Z,95888.34
2023-03-17T14:53:47.382Z,95884.63
2023-03-17T14:56:15.860Z,95880.63
2023-03-17T14:58:47.829Z,95879.03
2023-03-17T15:01:19.502Z,95881.44
2023-03-17T15:03:57.338Z,95875.06
2023-03-17T15:06:28.276Z,95876.09
2023-03-17T15:09:00.752Z,95874.78
2023-03-17T15:11:38.189Z,95873.72
2023-03-17T15:14:21.193Z,95871.88
2023-03-17T15:16:51.773Z,95868.91
2023-03-17T15:19:27.679Z,95868.91
2023-03-17T15:22:00.246Z,95871.06
2023-03-17T15:24:38.871Z,95868.16
2023-03-17T15:27:15.189Z,95866.00
2023-03-17T15:29:43.356Z,95868.41
2023-03-17T15:32:15.197Z,95861.22
2023-03-17T15:34:44.768Z,95862.53
2023-03-17T15:37:19.724Z,95865.19
2023-03-17T15:39:48.704Z,95862.25
2023-03-17T15:42:21.760Z,95860.94
2023-03-17T15:44:49.863Z,95867.88
2023-03-17T15:47:20.958Z,95868.41
2023-03-17T15:49:51.683Z,95867.09
2023-03-17T15:52:24.818Z,95863.06
2023-03-17T15:54:54.174Z,95858.31
2023-03-17T15:57:22.270Z,95868.66
2023-03-17T15:59:50.986Z,95866.28
2023-03-17T16:02:29.816Z,95866.84
2023-03-17T16:04:59.990Z,95868.16
2023-03-17T16:07:28.348Z,95870.50
2023-03-17T16:09:56.788Z,95869.19
2023-03-17T16:12:25.818Z,95867.84
2023-03-17T16:14:53.834Z,95869.72
2023-03-17T16:17:28.870Z,95871.84
2023-03-17T16:19:59.662Z,95872.13
2023-03-17T16:22:40.510Z,95879.81
2023-03-17T16:25:21.378Z,95879.03
2023-03-17T16:27:50.271Z,95871.31
2023-03-17T16:30:21.215Z,95872.66
2023-03-17T16:32:50.636Z,95880.09
2023-03-17T16:35:22.356Z,95878.22
2023-03-17T16:37:54.153Z,95874.75
2023-03-17T16:40:26.456Z,95883.53
2023-03-17T16:42:56.927Z,95878.22
2023-03-17T16:45:29.726Z,95880.88
2023-03-17T16:47:58.695Z,95881.91
2023-03-17T16:50:31.759Z,95897.31
2023-03-17T16:53:00.812Z,95899.97
2023-03-17T16:55:30.857Z,95894.38
2023-03-17T16:58:04.337Z,95902.09
2023-03-17T17:00:33.196Z,95897.81
2023-03-17T17:03:01.767Z,95899.13
2023-03-17T17:05:32.691Z,95907.91
2023-03-17T17:08:01.254Z,95899.38
2023-03-17T17:10:32.657Z,95919.81
2023-03-17T17:13:01.861Z,95921.94
2023-03-17T17:15:31.816Z,95922.72
2023-03-17T17:18:04.846Z,95918.72
2023-03-17T17:20:37.625Z,95917.63
2023-03-17T17:23:08.089Z,95918.38
2023-03-17T17:25:36.190Z,95917.03
2023-03-17T17:28:04.844Z,95930.53
2023-03-17T17:30:33.992Z,95934.78
2023-03-17T17:33:03.090Z,95936.59
2023-03-17T17:35:34.667Z,95937.34
2023-03-17T17:38:03.581Z,95932.81
2023-03-17T17:40:32.497Z,95938.09
2023-03-17T17:43:00.903Z,95945.22
2023-03-17T17:45:29.102Z,95946.53
2023-03-17T17:47:57.253Z,95940.41
2023-03-17T17:50:28.756Z,95942.44
2023-03-17T17:53:04.772Z,95947.97
2023-03-17T17:55:34.218Z,95943.13
2023-03-17T17:58:02.566Z,95948.00
2023-03-17T18:00:31.123Z,95937.91
2023-03-17T18:02:59.633Z,95951.59
2023-03-17T18:05:27.940Z,95952.66
2023-03-17T18:07:58.234Z,95953.97
2023-03-17T18:10:27.364Z,95952.34
2023-03-17T18:12:56.122Z,95951.81
2023-03-17T18:15:25.826Z,95957.91
2023-03-17T18:17:54.364Z,95962.91
2023-03-17T18:20:24.146Z,95967.94
2023-03-17T18:22:53.017Z,95970.50
2023-03-17T18:25:22.400Z,95977.91
2023-03-17T18:27:50.660Z,95987.16
2023-03-17T18:30:24.779Z,95977.88
2023-03-17T18:32:56.248Z,95986.31
2023-03-17T18:35:27.008Z,95977.56
2023-03-17T18:37:56.990Z,95981.75
2023-03-17T18:40:27.169Z,95985.75
2023-03-17T18:42:55.780Z,95985.69
2023-03-17T18:45:24.205Z,95990.38
2023-03-17T18:47:52.348Z,95993.28
2023-03-17T18:50:21.924Z,95990.09
2023-03-17T18:52:50.674Z,95993.47
2023-03-17T18:55:19.163Z,95991.50
2023-03-17T18:57:48.675Z,96005.94
2023-03-17T19:00:18.546Z,95994.84
2023-03-17T19:02:47.838Z,95996.69
2023-03-17T19:05:16.349Z,96014.66
2023-03-17T19:07:44.451Z,96014.66
2023-03-17T19:10:14.444Z,96011.53
2023-03-17T19:12:43.531Z,96010.72
2023-03-17T19:15:15.732Z,96011.78
2023-03-17T19:17:44.027Z,96013.06
2023-03-17T19:20:14.952Z,96003.81
2023-03-17T19:22:43.705Z,96001.66
2023-03-17T19:25:12.216Z,95997.13
2023-03-17T19:27:41.245Z,96000.97
2023-03-17T19:30:15.785Z,96003.47
2023-03-17T19:32:43.971Z,96008.72
2023-03-17T19:35:12.645Z,96007.09
2023-03-17T19:37:40.689Z,96014.66
2023-03-17T19:40:13.251Z,96008.50
2023-03-17T19:42:41.579Z,96009.16
2023-03-17T19:45:12.504Z,96014.31
2023-03-17T19:47:41.079Z,96018.38
2023-03-17T19:50:11.151Z,96011.97
2023-03-17T19:52:39.209Z,96012.50
2023-03-17T19:55:10.661Z,96022.13
2023-03-17T19:57:38.779Z,96010.50
2023-03-17T20:00:11.900Z,96017.09
2023-03-17T20:02:41.819Z,96010.84
2023-03-17T20:05:11.402Z,96021.66
2023-03-17T20:07:39.571Z,96019.25
2023-03-17T20:10:10.045Z,96024.94
2023-03-17T20:12:39.224Z,96027.38
2023-03-17T20:15:12.854Z,96036.81
2023-03-17T20:17:42.917Z,96038.50
2023-03-17T20:20:12.924Z,96049.06
2023-03-17T20:22:43.566Z,96044.81
2023-03-17T20:25:12.301Z,96046.84
2023-03-17T20:27:41.577Z,96039.22
2023-03-17T20:30:12.143Z,96042.41
2023-03-17T20:32:42.209Z,96050.59
2023-03-17T20:35:11.064Z,96045.03
2023-03-17T20:37:39.858Z,96037.03
2023-03-17T20:40:10.873Z,96042.16
2023-03-17T20:42:38.881Z,96042.66
2023-03-17T20:45:08.861Z,96035.19
2023-03-17T20:47:37.482Z,96042.16
2023-03-17T20:50:08.727Z,96049.59
2023-03-17T20:52:37.625Z,96042.72
2023-03-17T20:55:06.905Z,96041.03
2023-03-17T20:57:37.955Z,96042.69
2023-03-17T21:00:10.718Z,96039.41
2023-03-17T21:02:39.299Z,96036.13
2023-03-17T21:05:09.413Z,96030.47
2023-03-17T21:07:37.629Z,96035.97
2023-03-17T21:10:06.525Z,96040.84
2023-03-17T21:12:34.801Z,96031.41
2023-03-17T21:15:03.542Z,96034.88
2023-03-17T21:17:32.527Z,96038.41
2023-03-17T21:20:01.694Z,96044.00
2023-03-17T21:22:58.767Z,96046.66
2023-03-17T21:25:26.877Z,96045.59
2023-03-17T21:27:54.896Z,96037.13
2023-03-17T21:30:22.943Z,96036.16
2023-03-17T21:32:51.047Z,96037.19
2023-03-17T21:35:19.383Z,96041.94
2023-03-17T21:37:47.394Z,96038.47
2023-03-17T21:40:17.314Z,96042.72
2023-03-17T21:42:45.828Z,96052.75
2023-03-17T21:45:14.212Z,96054.56
2023-03-17T21:47:42.617Z,96050.88
2023-03-17T21:50:12.325Z,96054.66
2023-03-17T21:52:40.495Z,96061.22
2023-03-17T21:55:10.181Z,96053.28
2023-03-17T21:57:39.616Z,96056.50
2023-03-17T22:00:10.596Z,96069.50
2023-03-17T22:02:42.811Z,96070.84
2023-03-17T22:05:11.858Z,96074.78
2023-03-17T22:07:41.010Z,96077.66
2023-03-17T22:10:11.329Z,96081.91
2023-03-17T22:12:40.806Z,96075.72
2023-03-17T22:15:10.545Z,96072.03
2023-03-17T22:17:39.660Z,96079.25
2023-03-17T22:20:09.088Z,96089.75
2023-03-17T22:22:37.306Z,96083.88
2023-03-17T22:25:06.985Z,96087.25
2023-03-17T22:27:35.384Z,96094.13
2023-03-17T22:30:06.312Z,96095.97
2023-03-17T22:32:34.442Z,96093.78
2023-03-17T22:35:02.751Z,96096.44
2023-03-17T22:37:31.232Z,96111.25
2023-03-17T22:40:02.410Z,96099.88
2023-03-17T22:42:31.026Z,96105.97
2023-03-17T22:44:59.348Z,96101.16
2023-03-17T22:47:29.914Z,96108.03
2023-03-17T22:49:57.930Z,96109.63
2023-03-17T22:52:26.044Z,96104.50
2023-03-17T22:54:54.269Z,96108.19
2023-03-17T22:57:22.334Z,96101.31
2023-03-17T22:59:52.166Z,96101.31
2023-03-17T23:02:20.889Z,96104.97
2023-03-17T23:04:50.556Z,96100.41
2023-03-17T23:07:18.897Z,96106.38
2023-03-17T23:09:47.100Z,96109.03
2023-03-17T23:12:15.745Z,96117.19
2023-03-17T23:14:43.911Z,96121.69
2023-03-17T23:17:13.120Z,96109.25
2023-03-17T23:19:41.138Z,96124.53
2023-03-17T23:22:11.235Z,96118.66
2023-03-17T23:24:39.296Z,96125.81
2023-03-17T23:27:07.898Z,96128.78
2023-03-17T23:29:35.907Z,96125.34
2023-03-17T23:32:04.209Z,96128.78
2023-03-17T23:34:32.550Z,96121.31
2023-03-17T23:37:00.888Z,96127.63
2023-03-17T23:39:30.268Z,96128.22
2023-03-17T23:41:58.417Z,96130.50
2023-03-17T23:44:27.197Z,96134.66
2023-03-17T23:46:55.576Z,96139.78
2023-03-17T23:49:23.630Z,96135.56
2023-03-17T23:51:52.137Z,96128.00
2023-03-17T23:54:20.279Z,96133.50
2023-03-17T23:56:49.678Z,96134.66
2023-03-17T23:59:17.741Z,96135.09
